sensor_id;sensor_type;location;lat;lon;timestamp;temperature;humidity
16200;DHT22;8207;52.494;4.654;2023-05-24T00:00:59;9.40;99.90
16200;DHT22;8207;52.494;4.654;2023-05-24T00:03:27;9.40;99.90
16200;DHT22;8207;52.494;4.654;2023-05-24T00:05:55;9.40;99.90
16200;DHT22;8207;52.494;4.654;2023-05-24T00:08:22;9.40;99.90
16200;DHT22;8207;52.494;4.654;2023-05-24T00:10:50;9.40;99.90
16200;DHT22;8207;52.494;4.654;2023-05-24T00:13:17;9.40;99.90
16200;DHT22;8207;52.494;4.654;2023-05-24T00:15:44;9.40;99.90
16200;DHT22;8207;52.494;4.654;2023-05-24T00:18:11;9.40;99.90
16200;DHT22;8207;52.494;4.654;2023-05-24T00:20:38;9.40;99.90
16200;DHT22;8207;52.494;4.654;2023-05-24T00:23:05;9.40;99.90
16200;DHT22;8207;52.494;4.654;2023-05-24T00:25:32;9.40;99.90
16200;DHT22;8207;52.494;4.654;2023-05-24T00:28:00;9.40;99.90
16200;DHT22;8207;52.494;4.654;2023-05-24T00:30:27;9.50;99.90
16200;DHT22;8207;52.494;4.654;2023-05-24T00:32:54;9.40;99.90
16200;DHT22;8207;52.494;4.654;2023-05-24T00:35:21;9.50;99.90
16200;DHT22;8207;52.494;4.654;2023-05-24T00:37:48;9.50;99.90
16200;DHT22;8207;52.494;4.654;2023-05-24T00:40:15;9.50;99.90
16200;DHT22;8207;52.494;4.654;2023-05-24T00:42:42;9.50;99.90
16200;DHT22;8207;52.494;4.654;2023-05-24T00:45:11;9.50;99.90
16200;DHT22;8207;52.494;4.654;2023-05-24T00:47:39;9.50;99.90
16200;DHT22;8207;52.494;4.654;2023-05-24T00:50:07;9.50;99.90
16200;DHT22;8207;52.494;4.654;2023-05-24T00:52:36;9.50;99.90
16200;DHT22;8207;52.494;4.654;2023-05-24T00:55:04;9.60;99.90
16200;DHT22;8207;52.494;4.654;2023-05-24T00:57:31;9.50;99.90
16200;DHT22;8207;52.494;4.654;2023-05-24T00:59:59;9.60;99.90
16200;DHT22;8207;52.494;4.654;2023-05-24T01:02:27;9.60;99.90
16200;DHT22;8207;52.494;4.654;2023-05-24T01:04:54;9.60;99.90
16200;DHT22;8207;52.494;4.654;2023-05-24T01:07:26;9.60;99.90
16200;DHT22;8207;52.494;4.654;2023-05-24T01:10:03;9.60;99.90
16200;DHT22;8207;52.494;4.654;2023-05-24T01:12:42;9.60;99.90
16200;DHT22;8207;52.494;4.654;2023-05-24T01:15:20;9.60;99.90
16200;DHT22;8207;52.494;4.654;2023-05-24T01:17:58;9.70;99.90
16200;DHT22;8207;52.494;4.654;2023-05-24T01:20:28;9.70;99.90
16200;DHT22;8207;52.494;4.654;2023-05-24T01:23:14;9.70;99.90
16200;DHT22;8207;52.494;4.654;2023-05-24T01:26:02;9.70;99.90
16200;DHT22;8207;52.494;4.654;2023-05-24T01:28:33;9.70;99.90
16200;DHT22;8207;52.494;4.654;2023-05-24T01:31:01;9.70;99.90
16200;DHT22;8207;52.494;4.654;2023-05-24T01:33:29;9.70;99.90
16200;DHT22;8207;52.494;4.654;2023-05-24T01:35:56;9.70;99.90
16200;DHT22;8207;52.494;4.654;2023-05-24T01:38:23;9.70;99.90
16200;DHT22;8207;52.494;4.654;2023-05-24T01:40:57;9.70;99.90
16200;DHT22;8207;52.494;4.654;2023-05-24T01:43:32;9.70;99.90
16200;DHT22;8207;52.494;4.654;2023-05-24T01:46:05;9.60;99.90
16200;DHT22;8207;52.494;4.654;2023-05-24T01:48:45;9.60;99.90
16200;DHT22;8207;52.494;4.654;2023-05-24T01:51:17;9.60;99.90
16200;DHT22;8207;52.494;4.654;2023-05-24T01:53:45;9.60;99.90
16200;DHT22;8207;52.494;4.654;2023-05-24T01:56:13;9.60;99.90
16200;DHT22;8207;52.494;4.654;2023-05-24T01:58:42;9.60;99.90
16200;DHT22;8207;52.494;4.654;2023-05-24T02:01:11;9.50;99.90
16200;DHT22;8207;52.494;4.654;2023-05-24T02:03:38;9.50;99.90
16200;DHT22;8207;52.494;4.654;2023-05-24T02:06:06;9.50;99.90
16200;DHT22;8207;52.494;4.654;2023-05-24T02:08:35;9.50;99.90
16200;DHT22;8207;52.494;4.654;2023-05-24T02:11:01;9.50;99.90
16200;DHT22;8207;52.494;4.654;2023-05-24T02:13:28;9.40;99.90
16200;DHT22;8207;52.494;4.654;2023-05-24T02:15:55;9.40;99.90
16200;DHT22;8207;52.494;4.654;2023-05-24T02:18:23;9.40;99.90
16200;DHT22;8207;52.494;4.654;2023-05-24T02:20:50;9.40;99.90
16200;DHT22;8207;52.494;4.654;2023-05-24T02:23:17;9.40;99.90
16200;DHT22;8207;52.494;4.654;2023-05-24T02:25:44;9.30;99.90
16200;DHT22;8207;52.494;4.654;2023-05-24T02:28:11;9.30;99.90
16200;DHT22;8207;52.494;4.654;2023-05-24T02:30:38;9.30;99.90
16200;DHT22;8207;52.494;4.654;2023-05-24T02:33:08;9.30;99.90
16200;DHT22;8207;52.494;4.654;2023-05-24T02:35:37;9.20;99.90
16200;DHT22;8207;52.494;4.654;2023-05-24T02:38:06;9.20;99.90
16200;DHT22;8207;52.494;4.654;2023-05-24T02:40:34;9.20;99.90
16200;DHT22;8207;52.494;4.654;2023-05-24T02:43:01;9.20;99.90
16200;DHT22;8207;52.494;4.654;2023-05-24T02:45:28;9.20;99.90
16200;DHT22;8207;52.494;4.654;2023-05-24T02:47:55;9.10;99.90
16200;DHT22;8207;52.494;4.654;2023-05-24T02:50:21;9.10;99.90
16200;DHT22;8207;52.494;4.654;2023-05-24T02:52:50;9.10;99.90
16200;DHT22;8207;52.494;4.654;2023-05-24T02:55:17;9.10;99.90
16200;DHT22;8207;52.494;4.654;2023-05-24T02:57:44;9.10;99.90
16200;DHT22;8207;52.494;4.654;2023-05-24T03:00:13;9.10;99.90
16200;DHT22;8207;52.494;4.654;2023-05-24T03:02:40;9.10;99.90
16200;DHT22;8207;52.494;4.654;2023-05-24T03:05:07;9.10;99.90
16200;DHT22;8207;52.494;4.654;2023-05-24T03:07:34;9.10;99.90
16200;DHT22;8207;52.494;4.654;2023-05-24T03:10:04;9.10;99.90
16200;DHT22;8207;52.494;4.654;2023-05-24T03:12:31;9.10;99.90
16200;DHT22;8207;52.494;4.654;2023-05-24T03:14:58;9.00;99.90
16200;DHT22;8207;52.494;4.654;2023-05-24T03:17:24;9.00;99.90
16200;DHT22;8207;52.494;4.654;2023-05-24T03:19:51;9.00;99.90
16200;DHT22;8207;52.494;4.654;2023-05-24T03:22:18;9.10;99.90
16200;DHT22;8207;52.494;4.654;2023-05-24T03:24:45;9.00;99.90
16200;DHT22;8207;52.494;4.654;2023-05-24T03:27:14;9.00;99.90
16200;DHT22;8207;52.494;4.654;2023-05-24T03:29:41;9.00;99.90
16200;DHT22;8207;52.494;4.654;2023-05-24T03:32:08;9.00;99.90
16200;DHT22;8207;52.494;4.654;2023-05-24T03:34:35;9.00;99.90
16200;DHT22;8207;52.494;4.654;2023-05-24T03:37:02;9.00;99.90
16200;DHT22;8207;52.494;4.654;2023-05-24T03:39:29;9.00;99.90
16200;DHT22;8207;52.494;4.654;2023-05-24T03:41:55;9.00;99.90
16200;DHT22;8207;52.494;4.654;2023-05-24T03:44:24;9.00;99.90
16200;DHT22;8207;52.494;4.654;2023-05-24T03:46:51;9.10;99.90
16200;DHT22;8207;52.494;4.654;2023-05-24T03:49:18;9.10;99.90
16200;DHT22;8207;52.494;4.654;2023-05-24T03:51:45;9.10;99.90
16200;DHT22;8207;52.494;4.654;2023-05-24T03:54:12;9.10;99.90
16200;DHT22;8207;52.494;4.654;2023-05-24T03:56:39;9.20;99.90
16200;DHT22;8207;52.494;4.654;2023-05-24T03:59:06;9.20;99.90
16200;DHT22;8207;52.494;4.654;2023-05-24T04:01:35;9.20;99.90
16200;DHT22;8207;52.494;4.654;2023-05-24T04:04:02;9.30;99.90
16200;DHT22;8207;52.494;4.654;2023-05-24T04:06:29;9.30;99.90
16200;DHT22;8207;52.494;4.654;2023-05-24T04:08:56;9.40;99.90
16200;DHT22;8207;52.494;4.654;2023-05-24T04:11:24;9.40;99.90
16200;DHT22;8207;52.494;4.654;2023-05-24T04:13:53;9.40;99.90
16200;DHT22;8207;52.494;4.654;2023-05-24T04:16:21;9.50;99.90
16200;DHT22;8207;52.494;4.654;2023-05-24T04:18:50;9.50;99.90
16200;DHT22;8207;52.494;4.654;2023-05-24T04:21:17;9.60;99.90
16200;DHT22;8207;52.494;4.654;2023-05-24T04:23:44;9.60;99.90
16200;DHT22;8207;52.494;4.654;2023-05-24T04:26:11;9.70;99.90
16200;DHT22;8207;52.494;4.654;2023-05-24T04:28:39;9.80;99.90
16200;DHT22;8207;52.494;4.654;2023-05-24T04:31:06;9.90;99.90
16200;DHT22;8207;52.494;4.654;2023-05-24T04:33:34;9.90;99.90
16200;DHT22;8207;52.494;4.654;2023-05-24T04:36:03;10.00;99.90
16200;DHT22;8207;52.494;4.654;2023-05-24T04:38:30;10.00;99.90
16200;DHT22;8207;52.494;4.654;2023-05-24T04:40:59;10.10;99.90
16200;DHT22;8207;52.494;4.654;2023-05-24T04:43:26;10.30;99.90
16200;DHT22;8207;52.494;4.654;2023-05-24T04:45:53;10.40;99.90
16200;DHT22;8207;52.494;4.654;2023-05-24T04:48:20;10.50;99.90
16200;DHT22;8207;52.494;4.654;2023-05-24T04:50:49;10.60;99.90
16200;DHT22;8207;52.494;4.654;2023-05-24T04:53:18;10.70;99.90
16200;DHT22;8207;52.494;4.654;2023-05-24T04:55:45;10.80;99.90
16200;DHT22;8207;52.494;4.654;2023-05-24T04:58:12;10.90;99.90
16200;DHT22;8207;52.494;4.654;2023-05-24T05:00:39;10.90;99.90
16200;DHT22;8207;52.494;4.654;2023-05-24T05:03:06;11.10;99.90
16200;DHT22;8207;52.494;4.654;2023-05-24T05:05:33;11.20;99.90
16200;DHT22;8207;52.494;4.654;2023-05-24T05:08:00;11.30;99.90
16200;DHT22;8207;52.494;4.654;2023-05-24T05:10:29;11.50;99.90
16200;DHT22;8207;52.494;4.654;2023-05-24T05:12:56;11.60;99.90
16200;DHT22;8207;52.494;4.654;2023-05-24T05:15:23;11.80;99.90
16200;DHT22;8207;52.494;4.654;2023-05-24T05:17:50;11.90;99.90
16200;DHT22;8207;52.494;4.654;2023-05-24T05:20:17;12.20;99.90
16200;DHT22;8207;52.494;4.654;2023-05-24T05:22:45;12.30;99.90
16200;DHT22;8207;52.494;4.654;2023-05-24T05:25:12;12.60;99.90
16200;DHT22;8207;52.494;4.654;2023-05-24T05:27:41;12.90;99.90
16200;DHT22;8207;52.494;4.654;2023-05-24T05:30:08;13.10;99.90
16200;DHT22;8207;52.494;4.654;2023-05-24T05:32:35;13.30;99.90
16200;DHT22;8207;52.494;4.654;2023-05-24T05:35:03;13.50;99.90
16200;DHT22;8207;52.494;4.654;2023-05-24T05:37:30;13.70;99.90
16200;DHT22;8207;52.494;4.654;2023-05-24T05:39:57;13.80;99.90
16200;DHT22;8207;52.494;4.654;2023-05-24T05:42:23;13.90;99.90
16200;DHT22;8207;52.494;4.654;2023-05-24T05:44:52;14.00;99.90
16200;DHT22;8207;52.494;4.654;2023-05-24T05:47:19;14.30;99.90
16200;DHT22;8207;52.494;4.654;2023-05-24T05:49:46;14.60;99.90
16200;DHT22;8207;52.494;4.654;2023-05-24T05:52:13;14.80;19.50
16200;DHT22;8207;52.494;4.654;2023-05-24T05:54:39;14.90;1.00
16200;DHT22;8207;52.494;4.654;2023-05-24T05:57:06;15.00;1.00
16200;DHT22;8207;52.494;4.654;2023-05-24T05:59:36;15.20;1.00
16200;DHT22;8207;52.494;4.654;2023-05-24T06:02:05;15.50;1.00
16200;DHT22;8207;52.494;4.654;2023-05-24T06:04:32;15.80;1.00
16200;DHT22;8207;52.494;4.654;2023-05-24T06:06:59;16.20;1.00
16200;DHT22;8207;52.494;4.654;2023-05-24T06:09:26;16.60;1.00
16200;DHT22;8207;52.494;4.654;2023-05-24T06:11:53;16.90;1.00
16200;DHT22;8207;52.494;4.654;2023-05-24T06:14:20;17.00;1.00
16200;DHT22;8207;52.494;4.654;2023-05-24T06:16:49;17.00;1.00
16200;DHT22;8207;52.494;4.654;2023-05-24T06:19:18;17.00;1.00
16200;DHT22;8207;52.494;4.654;2023-05-24T06:21:46;17.10;1.00
16200;DHT22;8207;52.494;4.654;2023-05-24T06:24:14;17.30;1.00
16200;DHT22;8207;52.494;4.654;2023-05-24T06:26:44;17.50;1.00
16200;DHT22;8207;52.494;4.654;2023-05-24T06:29:11;17.70;1.00
16200;DHT22;8207;52.494;4.654;2023-05-24T06:31:39;17.90;1.00
16200;DHT22;8207;52.494;4.654;2023-05-24T06:34:06;18.00;99.90
16200;DHT22;8207;52.494;4.654;2023-05-24T06:36:34;18.20;99.90
16200;DHT22;8207;52.494;4.654;2023-05-24T06:39:08;18.50;99.90
16200;DHT22;8207;52.494;4.654;2023-05-24T06:41:35;18.60;99.90
16200;DHT22;8207;52.494;4.654;2023-05-24T06:44:03;18.80;99.90
16200;DHT22;8207;52.494;4.654;2023-05-24T06:46:30;18.80;99.90
16200;DHT22;8207;52.494;4.654;2023-05-24T06:48:57;18.80;99.90
16200;DHT22;8207;52.494;4.654;2023-05-24T06:51:24;18.90;99.90
16200;DHT22;8207;52.494;4.654;2023-05-24T06:53:52;18.90;99.90
16200;DHT22;8207;52.494;4.654;2023-05-24T06:56:19;18.90;99.90
16200;DHT22;8207;52.494;4.654;2023-05-24T06:58:46;19.10;99.90
16200;DHT22;8207;52.494;4.654;2023-05-24T07:01:13;19.20;99.90
16200;DHT22;8207;52.494;4.654;2023-05-24T07:03:41;19.30;99.90
16200;DHT22;8207;52.494;4.654;2023-05-24T07:06:07;19.20;99.90
16200;DHT22;8207;52.494;4.654;2023-05-24T07:08:38;19.00;99.90
16200;DHT22;8207;52.494;4.654;2023-05-24T07:11:07;19.00;99.90
16200;DHT22;8207;52.494;4.654;2023-05-24T07:13:34;19.30;99.90
16200;DHT22;8207;52.494;4.654;2023-05-24T07:16:01;19.30;99.90
16200;DHT22;8207;52.494;4.654;2023-05-24T07:18:29;19.40;99.90
16200;DHT22;8207;52.494;4.654;2023-05-24T07:20:56;19.60;99.90
16200;DHT22;8207;52.494;4.654;2023-05-24T07:23:23;19.80;99.90
16200;DHT22;8207;52.494;4.654;2023-05-24T07:25:50;19.90;99.90
16200;DHT22;8207;52.494;4.654;2023-05-24T07:28:18;19.80;99.90
16200;DHT22;8207;52.494;4.654;2023-05-24T07:30:46;19.80;99.90
16200;DHT22;8207;52.494;4.654;2023-05-24T07:33:13;20.00;99.90
16200;DHT22;8207;52.494;4.654;2023-05-24T07:35:40;20.00;99.90
16200;DHT22;8207;52.494;4.654;2023-05-24T07:38:07;20.10;99.90
16200;DHT22;8207;52.494;4.654;2023-05-24T07:40:34;20.00;99.90
16200;DHT22;8207;52.494;4.654;2023-05-24T07:43:01;20.00;99.90
16200;DHT22;8207;52.494;4.654;2023-05-24T07:45:30;20.00;99.90
16200;DHT22;8207;52.494;4.654;2023-05-24T07:47:57;20.00;99.90
16200;DHT22;8207;52.494;4.654;2023-05-24T07:50:23;19.90;99.90
16200;DHT22;8207;52.494;4.654;2023-05-24T07:52:50;19.70;99.90
16200;DHT22;8207;52.494;4.654;2023-05-24T07:55:17;20.00;99.90
16200;DHT22;8207;52.494;4.654;2023-05-24T07:57:45;20.30;99.90
16200;DHT22;8207;52.494;4.654;2023-05-24T08:00:12;20.80;99.90
16200;DHT22;8207;52.494;4.654;2023-05-24T08:02:42;20.70;99.90
16200;DHT22;8207;52.494;4.654;2023-05-24T08:05:11;20.80;99.90
16200;DHT22;8207;52.494;4.654;2023-05-24T08:07:38;21.00;99.90
16200;DHT22;8207;52.494;4.654;2023-05-24T08:10:07;21.10;99.90
16200;DHT22;8207;52.494;4.654;2023-05-24T08:12:34;21.20;99.90
16200;DHT22;8207;52.494;4.654;2023-05-24T08:15:01;21.40;99.90
16200;DHT22;8207;52.494;4.654;2023-05-24T08:17:28;21.60;99.90
16200;DHT22;8207;52.494;4.654;2023-05-24T08:36:09;21.00;99.90
16200;DHT22;8207;52.494;4.654;2023-05-24T08:38:36;21.10;99.90
16200;DHT22;8207;52.494;4.654;2023-05-24T08:41:04;21.30;99.90
16200;DHT22;8207;52.494;4.654;2023-05-24T08:43:33;21.50;99.90
16200;DHT22;8207;52.494;4.654;2023-05-24T08:46:01;21.40;99.90
16200;DHT22;8207;52.494;4.654;2023-05-24T08:48:28;21.30;99.90
16200;DHT22;8207;52.494;4.654;2023-05-24T08:50:56;21.00;99.90
16200;DHT22;8207;52.494;4.654;2023-05-24T08:53:25;20.70;99.90
16200;DHT22;8207;52.494;4.654;2023-05-24T08:55:53;20.80;99.90
16200;DHT22;8207;52.494;4.654;2023-05-24T08:58:20;21.00;99.90
16200;DHT22;8207;52.494;4.654;2023-05-24T09:00:47;21.00;99.90
16200;DHT22;8207;52.494;4.654;2023-05-24T09:03:15;21.40;99.90
16200;DHT22;8207;52.494;4.654;2023-05-24T09:05:43;21.30;99.90
16200;DHT22;8207;52.494;4.654;2023-05-24T09:08:10;21.20;99.90
16200;DHT22;8207;52.494;4.654;2023-05-24T09:10:39;21.40;99.90
16200;DHT22;8207;52.494;4.654;2023-05-24T09:13:06;21.30;99.90
16200;DHT22;8207;52.494;4.654;2023-05-24T09:15:34;21.40;99.90
16200;DHT22;8207;52.494;4.654;2023-05-24T09:18:01;21.50;99.90
16200;DHT22;8207;52.494;4.654;2023-05-24T09:20:29;21.70;99.90
16200;DHT22;8207;52.494;4.654;2023-05-24T09:22:56;21.90;99.90
16200;DHT22;8207;52.494;4.654;2023-05-24T09:25:27;22.00;99.90
16200;DHT22;8207;52.494;4.654;2023-05-24T09:27:55;21.90;99.90
16200;DHT22;8207;52.494;4.654;2023-05-24T09:30:22;22.00;99.90
16200;DHT22;8207;52.494;4.654;2023-05-24T09:32:57;22.00;99.90
16200;DHT22;8207;52.494;4.654;2023-05-24T09:35:24;22.10;99.90
16200;DHT22;8207;52.494;4.654;2023-05-24T09:37:55;22.30;99.90
16200;DHT22;8207;52.494;4.654;2023-05-24T09:40:24;22.20;99.90
16200;DHT22;8207;52.494;4.654;2023-05-24T09:43:06;22.30;99.90
16200;DHT22;8207;52.494;4.654;2023-05-24T09:45:40;22.30;99.90
16200;DHT22;8207;52.494;4.654;2023-05-24T09:48:10;22.00;99.90
16200;DHT22;8207;52.494;4.654;2023-05-24T09:50:37;21.90;99.90
16200;DHT22;8207;52.494;4.654;2023-05-24T09:53:04;21.90;99.90
16200;DHT22;8207;52.494;4.654;2023-05-24T09:55:34;22.00;99.90
16200;DHT22;8207;52.494;4.654;2023-05-24T09:58:03;22.00;99.90
16200;DHT22;8207;52.494;4.654;2023-05-24T10:00:34;22.10;99.90
16200;DHT22;8207;52.494;4.654;2023-05-24T10:03:05;21.80;99.90
16200;DHT22;8207;52.494;4.654;2023-05-24T10:05:33;21.90;99.90
16200;DHT22;8207;52.494;4.654;2023-05-24T10:08:01;22.00;99.90
16200;DHT22;8207;52.494;4.654;2023-05-24T10:10:30;22.10;99.90
16200;DHT22;8207;52.494;4.654;2023-05-24T10:12:57;22.30;99.90
16200;DHT22;8207;52.494;4.654;2023-05-24T10:15:25;22.50;99.90
16200;DHT22;8207;52.494;4.654;2023-05-24T10:17:54;22.70;99.90
16200;DHT22;8207;52.494;4.654;2023-05-24T10:20:22;22.70;99.90
16200;DHT22;8207;52.494;4.654;2023-05-24T10:22:51;22.50;99.90
16200;DHT22;8207;52.494;4.654;2023-05-24T10:25:21;22.20;99.90
16200;DHT22;8207;52.494;4.654;2023-05-24T10:27:51;21.70;99.90
16200;DHT22;8207;52.494;4.654;2023-05-24T10:30:27;21.40;99.90
16200;DHT22;8207;52.494;4.654;2023-05-24T10:32:58;21.50;99.90
16200;DHT22;8207;52.494;4.654;2023-05-24T10:35:27;21.20;99.90
16200;DHT22;8207;52.494;4.654;2023-05-24T10:37:54;21.20;99.90
16200;DHT22;8207;52.494;4.654;2023-05-24T10:40:22;21.50;99.90
16200;DHT22;8207;52.494;4.654;2023-05-24T10:42:51;21.80;99.90
16200;DHT22;8207;52.494;4.654;2023-05-24T10:45:32;22.10;99.90
16200;DHT22;8207;52.494;4.654;2023-05-24T10:48:07;22.10;99.90
16200;DHT22;8207;52.494;4.654;2023-05-24T10:50:35;21.80;99.90
16200;DHT22;8207;52.494;4.654;2023-05-24T10:53:12;21.90;99.90
16200;DHT22;8207;52.494;4.654;2023-05-24T10:55:55;21.70;99.90
16200;DHT22;8207;52.494;4.654;2023-05-24T10:58:27;21.60;99.90
16200;DHT22;8207;52.494;4.654;2023-05-24T11:00:55;21.70;99.90
16200;DHT22;8207;52.494;4.654;2023-05-24T11:03:23;21.60;99.90
16200;DHT22;8207;52.494;4.654;2023-05-24T11:05:52;21.60;99.90
16200;DHT22;8207;52.494;4.654;2023-05-24T11:08:23;21.90;99.90
16200;DHT22;8207;52.494;4.654;2023-05-24T11:11:01;21.90;99.90
16200;DHT22;8207;52.494;4.654;2023-05-24T11:13:30;22.00;99.90
16200;DHT22;8207;52.494;4.654;2023-05-24T11:15:58;21.70;99.90
16200;DHT22;8207;52.494;4.654;2023-05-24T11:18:27;21.80;99.90
16200;DHT22;8207;52.494;4.654;2023-05-24T11:20:56;21.90;99.90
16200;DHT22;8207;52.494;4.654;2023-05-24T11:23:25;21.90;99.90
16200;DHT22;8207;52.494;4.654;2023-05-24T11:25:52;21.80;99.90
16200;DHT22;8207;52.494;4.654;2023-05-24T11:28:20;22.00;99.90
16200;DHT22;8207;52.494;4.654;2023-05-24T11:30:48;22.20;99.90
16200;DHT22;8207;52.494;4.654;2023-05-24T11:33:15;22.30;99.90
16200;DHT22;8207;52.494;4.654;2023-05-24T11:35:44;22.40;99.90
16200;DHT22;8207;52.494;4.654;2023-05-24T11:38:12;22.40;99.90
16200;DHT22;8207;52.494;4.654;2023-05-24T11:40:40;22.00;99.70
16200;DHT22;8207;52.494;4.654;2023-05-24T11:43:15;21.70;99.90
16200;DHT22;8207;52.494;4.654;2023-05-24T11:45:43;21.60;99.90
16200;DHT22;8207;52.494;4.654;2023-05-24T11:48:10;21.60;99.90
16200;DHT22;8207;52.494;4.654;2023-05-24T11:50:38;21.40;99.90
16200;DHT22;8207;52.494;4.654;2023-05-24T11:53:08;21.20;99.90
16200;DHT22;8207;52.494;4.654;2023-05-24T11:55:35;21.20;99.90
16200;DHT22;8207;52.494;4.654;2023-05-24T11:58:06;21.20;99.90
16200;DHT22;8207;52.494;4.654;2023-05-24T12:00:36;21.10;99.90
16200;DHT22;8207;52.494;4.654;2023-05-24T12:03:03;20.90;99.90
16200;DHT22;8207;52.494;4.654;2023-05-24T12:05:33;20.80;99.90
16200;DHT22;8207;52.494;4.654;2023-05-24T12:08:02;20.60;99.90
16200;DHT22;8207;52.494;4.654;2023-05-24T12:10:32;20.40;99.90
16200;DHT22;8207;52.494;4.654;2023-05-24T12:12:59;20.30;99.90
16200;DHT22;8207;52.494;4.654;2023-05-24T12:15:27;20.20;99.90
16200;DHT22;8207;52.494;4.654;2023-05-24T12:17:55;20.30;99.90
16200;DHT22;8207;52.494;4.654;2023-05-24T12:20:22;20.30;99.90
16200;DHT22;8207;52.494;4.654;2023-05-24T12:22:50;20.30;99.90
16200;DHT22;8207;52.494;4.654;2023-05-24T12:25:17;20.20;99.90
16200;DHT22;8207;52.494;4.654;2023-05-24T12:27:51;20.30;99.90
16200;DHT22;8207;52.494;4.654;2023-05-24T12:30:21;20.40;99.90
16200;DHT22;8207;52.494;4.654;2023-05-24T12:32:49;20.10;99.90
16200;DHT22;8207;52.494;4.654;2023-05-24T12:35:16;20.00;99.90
16200;DHT22;8207;52.494;4.654;2023-05-24T12:37:43;19.90;99.90
16200;DHT22;8207;52.494;4.654;2023-05-24T12:40:14;20.00;99.90
16200;DHT22;8207;52.494;4.654;2023-05-24T12:42:44;20.20;99.90
16200;DHT22;8207;52.494;4.654;2023-05-24T12:45:15;20.10;99.90
16200;DHT22;8207;52.494;4.654;2023-05-24T12:47:48;20.00;99.90
16200;DHT22;8207;52.494;4.654;2023-05-24T12:50:15;20.10;99.90
16200;DHT22;8207;52.494;4.654;2023-05-24T12:52:42;20.10;99.90
16200;DHT22;8207;52.494;4.654;2023-05-24T12:55:11;20.10;99.90
16200;DHT22;8207;52.494;4.654;2023-05-24T12:57:39;20.10;99.90
16200;DHT22;8207;52.494;4.654;2023-05-24T13:00:07;20.20;99.90
16200;DHT22;8207;52.494;4.654;2023-05-24T13:02:36;20.30;99.90
16200;DHT22;8207;52.494;4.654;2023-05-24T13:05:04;20.20;99.90
16200;DHT22;8207;52.494;4.654;2023-05-24T13:07:31;20.20;99.90
16200;DHT22;8207;52.494;4.654;2023-05-24T13:09:58;20.10;99.90
16200;DHT22;8207;52.494;4.654;2023-05-24T13:12:26;20.00;99.90
16200;DHT22;8207;52.494;4.654;2023-05-24T13:14:53;19.90;99.90
16200;DHT22;8207;52.494;4.654;2023-05-24T13:17:19;19.80;99.90
16200;DHT22;8207;52.494;4.654;2023-05-24T13:19:48;19.70;99.90
16200;DHT22;8207;52.494;4.654;2023-05-24T13:22:15;19.60;99.90
16200;DHT22;8207;52.494;4.654;2023-05-24T13:24:42;19.60;99.90
16200;DHT22;8207;52.494;4.654;2023-05-24T13:27:09;19.60;99.90
16200;DHT22;8207;52.494;4.654;2023-05-24T13:29:35;19.70;99.90
16200;DHT22;8207;52.494;4.654;2023-05-24T13:32:02;19.60;99.90
16200;DHT22;8207;52.494;4.654;2023-05-24T13:34:29;19.60;99.90
16200;DHT22;8207;52.494;4.654;2023-05-24T13:36:59;19.50;99.90
16200;DHT22;8207;52.494;4.654;2023-05-24T13:39:26;19.50;99.90
16200;DHT22;8207;52.494;4.654;2023-05-24T13:41:53;19.40;99.90
16200;DHT22;8207;52.494;4.654;2023-05-24T13:44:20;19.20;99.90
16200;DHT22;8207;52.494;4.654;2023-05-24T13:46:47;19.20;99.90
16200;DHT22;8207;52.494;4.654;2023-05-24T13:49:14;19.30;99.90
16200;DHT22;8207;52.494;4.654;2023-05-24T13:51:41;19.30;99.90
16200;DHT22;8207;52.494;4.654;2023-05-24T13:54:09;19.30;99.90
16200;DHT22;8207;52.494;4.654;2023-05-24T13:56:37;19.10;99.90
16200;DHT22;8207;52.494;4.654;2023-05-24T13:59:05;19.00;99.90
16200;DHT22;8207;52.494;4.654;2023-05-24T14:01:33;18.90;99.90
16200;DHT22;8207;52.494;4.654;2023-05-24T14:04:02;18.90;99.90
16200;DHT22;8207;52.494;4.654;2023-05-24T14:06:30;19.00;99.90
16200;DHT22;8207;52.494;4.654;2023-05-24T14:08:57;19.00;99.90
16200;DHT22;8207;52.494;4.654;2023-05-24T14:11:26;18.80;99.90
16200;DHT22;8207;52.494;4.654;2023-05-24T14:13:56;18.70;99.90
16200;DHT22;8207;52.494;4.654;2023-05-24T14:16:23;18.60;99.90
16200;DHT22;8207;52.494;4.654;2023-05-24T14:18:50;18.60;99.90
16200;DHT22;8207;52.494;4.654;2023-05-24T14:21:18;18.40;99.90
16200;DHT22;8207;52.494;4.654;2023-05-24T14:23:46;18.30;99.90
16200;DHT22;8207;52.494;4.654;2023-05-24T14:26:13;18.40;99.90
16200;DHT22;8207;52.494;4.654;2023-05-24T14:28:41;18.50;99.90
16200;DHT22;8207;52.494;4.654;2023-05-24T14:31:08;18.60;99.90
16200;DHT22;8207;52.494;4.654;2023-05-24T14:33:35;18.50;99.90
16200;DHT22;8207;52.494;4.654;2023-05-24T14:36:02;18.30;99.90
16200;DHT22;8207;52.494;4.654;2023-05-24T14:38:29;18.20;99.90
16200;DHT22;8207;52.494;4.654;2023-05-24T14:40:56;18.20;99.90
16200;DHT22;8207;52.494;4.654;2023-05-24T14:43:25;18.10;99.90
16200;DHT22;8207;52.494;4.654;2023-05-24T14:45:53;18.00;99.90
16200;DHT22;8207;52.494;4.654;2023-05-24T14:48:20;17.90;99.90
16200;DHT22;8207;52.494;4.654;2023-05-24T14:50:47;17.80;99.90
16200;DHT22;8207;52.494;4.654;2023-05-24T14:53:14;17.80;99.90
16200;DHT22;8207;52.494;4.654;2023-05-24T14:55:42;17.90;99.90
16200;DHT22;8207;52.494;4.654;2023-05-24T14:58:09;17.90;99.90
16200;DHT22;8207;52.494;4.654;2023-05-24T15:00:38;18.00;99.90
16200;DHT22;8207;52.494;4.654;2023-05-24T15:03:07;17.90;99.90
16200;DHT22;8207;52.494;4.654;2023-05-24T15:05:37;17.90;99.90
16200;DHT22;8207;52.494;4.654;2023-05-24T15:08:03;17.90;99.90
16200;DHT22;8207;52.494;4.654;2023-05-24T15:10:32;18.00;99.90
16200;DHT22;8207;52.494;4.654;2023-05-24T15:12:59;18.00;99.90
16200;DHT22;8207;52.494;4.654;2023-05-24T15:15:26;17.90;99.90
16200;DHT22;8207;52.494;4.654;2023-05-24T15:17:53;17.90;99.90
16200;DHT22;8207;52.494;4.654;2023-05-24T15:20:21;18.20;99.90
16200;DHT22;8207;52.494;4.654;2023-05-24T15:22:48;18.40;99.90
16200;DHT22;8207;52.494;4.654;2023-05-24T15:25:15;18.50;99.90
16200;DHT22;8207;52.494;4.654;2023-05-24T15:27:42;18.50;99.90
16200;DHT22;8207;52.494;4.654;2023-05-24T15:30:10;18.60;99.90
16200;DHT22;8207;52.494;4.654;2023-05-24T15:32:37;18.70;99.90
16200;DHT22;8207;52.494;4.654;2023-05-24T15:35:04;18.60;99.90
16200;DHT22;8207;52.494;4.654;2023-05-24T15:37:33;18.60;99.90
16200;DHT22;8207;52.494;4.654;2023-05-24T15:39:59;18.60;99.90
16200;DHT22;8207;52.494;4.654;2023-05-24T15:42:26;18.70;99.90
16200;DHT22;8207;52.494;4.654;2023-05-24T15:44:54;18.80;99.90
16200;DHT22;8207;52.494;4.654;2023-05-24T15:47:21;19.10;99.90
16200;DHT22;8207;52.494;4.654;2023-05-24T15:49:52;19.40;99.90
16200;DHT22;8207;52.494;4.654;2023-05-24T15:52:19;19.70;99.90
16200;DHT22;8207;52.494;4.654;2023-05-24T15:54:47;19.70;99.90
16200;DHT22;8207;52.494;4.654;2023-05-24T15:57:14;19.80;99.90
16200;DHT22;8207;52.494;4.654;2023-05-24T15:59:41;19.80;99.90
16200;DHT22;8207;52.494;4.654;2023-05-24T16:02:10;19.80;99.90
16200;DHT22;8207;52.494;4.654;2023-05-24T16:04:37;19.70;99.90
16200;DHT22;8207;52.494;4.654;2023-05-24T16:07:04;19.50;99.90
16200;DHT22;8207;52.494;4.654;2023-05-24T16:09:31;19.50;99.90
16200;DHT22;8207;52.494;4.654;2023-05-24T16:11:59;19.50;99.90
16200;DHT22;8207;52.494;4.654;2023-05-24T16:14:27;19.40;99.90